sensor_id;sensor_type;location;lat;lon;timestamp;P1;durP1;ratioP1;P2;durP2;ratioP2
13704;SDS011;6924;52.122;9.952;2023-07-02T00:01:42;1.70;;;1.60;;
13704;SDS011;6924;52.122;9.952;2023-07-02T00:04:10;1.33;;;1.23;;
13704;SDS011;6924;52.122;9.952;2023-07-02T00:06:38;1.40;;;1.23;;
13704;SDS011;6924;52.122;9.952;2023-07-02T00:09:05;1.50;;;1.20;;
13704;SDS011;6924;52.122;9.952;2023-07-02T00:11:32;1.40;;;1.30;;
13704;SDS011;6924;52.122;9.952;2023-07-02T00:13:58;1.80;;;1.70;;
13704;SDS011;6924;52.122;9.952;2023-07-02T00:16:24;1.63;;;1.23;;
13704;SDS011;6924;52.122;9.952;2023-07-02T00:18:51;1.27;;;1.17;;
13704;SDS011;6924;52.122;9.952;2023-07-02T00:21:19;1.50;;;1.40;;
13704;SDS011;6924;52.122;9.952;2023-07-02T00:23:46;1.50;;;1.40;;
13704;SDS011;6924;52.122;9.952;2023-07-02T00:26:12;1.80;;;1.70;;
13704;SDS011;6924;52.122;9.952;2023-07-02T00:28:39;1.33;;;1.23;;
13704;SDS011;6924;52.122;9.952;2023-07-02T00:31:05;1.80;;;1.70;;
13704;SDS011;6924;52.122;9.952;2023-07-02T00:33:33;1.20;;;1.10;;
13704;SDS011;6924;52.122;9.952;2023-07-02T00:36:00;1.27;;;1.17;;
13704;SDS011;6924;52.122;9.952;2023-07-02T00:38:28;1.70;;;1.37;;
13704;SDS011;6924;52.122;9.952;2023-07-02T00:40:54;1.80;;;1.43;;
13704;SDS011;6924;52.122;9.952;2023-07-02T00:43:22;1.50;;;1.40;;
13704;SDS011;6924;52.122;9.952;2023-07-02T00:45:49;1.30;;;1.20;;
13704;SDS011;6924;52.122;9.952;2023-07-02T00:48:15;1.63;;;1.40;;
13704;SDS011;6924;52.122;9.952;2023-07-02T00:50:42;2.47;;;1.37;;
13704;SDS011;6924;52.122;9.952;2023-07-02T00:53:08;1.30;;;1.20;;
13704;SDS011;6924;52.122;9.952;2023-07-02T00:55:36;1.30;;;1.20;;
13704;SDS011;6924;52.122;9.952;2023-07-02T00:58:02;2.10;;;1.50;;
13704;SDS011;6924;52.122;9.952;2023-07-02T01:00:29;1.60;;;1.50;;
13704;SDS011;6924;52.122;9.952;2023-07-02T01:02:56;0.97;;;0.80;;
13704;SDS011;6924;52.122;9.952;2023-07-02T01:05:24;1.00;;;1.00;;
13704;SDS011;6924;52.122;9.952;2023-07-02T01:07:51;1.00;;;1.00;;
13704;SDS011;6924;52.122;9.952;2023-07-02T01:10:17;1.63;;;1.53;;
13704;SDS011;6924;52.122;9.952;2023-07-02T01:12:45;2.03;;;1.20;;
13704;SDS011;6924;52.122;9.952;2023-07-02T01:15:13;1.40;;;1.27;;
13704;SDS011;6924;52.122;9.952;2023-07-02T01:17:39;1.47;;;1.30;;
13704;SDS011;6924;52.122;9.952;2023-07-02T01:20:08;1.33;;;1.30;;
13704;SDS011;6924;52.122;9.952;2023-07-02T01:22:36;1.80;;;1.40;;
13704;SDS011;6924;52.122;9.952;2023-07-02T01:25:03;1.60;;;1.50;;
13704;SDS011;6924;52.122;9.952;2023-07-02T01:27:30;1.33;;;1.33;;
13704;SDS011;6924;52.122;9.952;2023-07-02T01:29:58;1.70;;;1.60;;
13704;SDS011;6924;52.122;9.952;2023-07-02T01:32:24;1.67;;;1.57;;
13704;SDS011;6924;52.122;9.952;2023-07-02T01:34:51;1.40;;;1.30;;
13704;SDS011;6924;52.122;9.952;2023-07-02T01:37:19;1.50;;;1.40;;
13704;SDS011;6924;52.122;9.952;2023-07-02T01:39:46;2.33;;;1.50;;
13704;SDS011;6924;52.122;9.952;2023-07-02T01:42:13;1.43;;;1.33;;
13704;SDS011;6924;52.122;9.952;2023-07-02T01:44:41;1.77;;;1.47;;
13704;SDS011;6924;52.122;9.952;2023-07-02T01:47:08;2.37;;;1.53;;
13704;SDS011;6924;52.122;9.952;2023-07-02T01:49:34;1.70;;;1.60;;
13704;SDS011;6924;52.122;9.952;2023-07-02T01:52:03;1.70;;;1.60;;
13704;SDS011;6924;52.122;9.952;2023-07-02T01:54:32;2.90;;;1.20;;
13704;SDS011;6924;52.122;9.952;2023-07-02T01:56:59;1.30;;;1.20;;
13704;SDS011;6924;52.122;9.952;2023-07-02T01:59:26;1.33;;;1.23;;
13704;SDS011;6924;52.122;9.952;2023-07-02T02:01:52;1.77;;;1.20;;
13704;SDS011;6924;52.122;9.952;2023-07-02T02:04:19;2.03;;;1.70;;
13704;SDS011;6924;52.122;9.952;2023-07-02T02:06:45;1.47;;;1.37;;
13704;SDS011;6924;52.122;9.952;2023-07-02T02:09:11;1.60;;;1.50;;
13704;SDS011;6924;52.122;9.952;2023-07-02T02:11:40;2.00;;;1.50;;
13704;SDS011;6924;52.122;9.952;2023-07-02T02:14:07;1.70;;;1.60;;
13704;SDS011;6924;52.122;9.952;2023-07-02T02:16:34;1.70;;;1.47;;
13704;SDS011;6924;52.122;9.952;2023-07-02T02:19:01;2.13;;;2.03;;
13704;SDS011;6924;52.122;9.952;2023-07-02T02:21:27;1.80;;;1.70;;
13704;SDS011;6924;52.122;9.952;2023-07-02T02:23:54;2.03;;;1.93;;
13704;SDS011;6924;52.122;9.952;2023-07-02T02:26:21;3.00;;;1.73;;
13704;SDS011;6924;52.122;9.952;2023-07-02T02:28:50;1.87;;;1.77;;
13704;SDS011;6924;52.122;9.952;2023-07-02T02:31:16;4.80;;;2.10;;
13704;SDS011;6924;52.122;9.952;2023-07-02T02:33:43;1.90;;;1.80;;
13704;SDS011;6924;52.122;9.952;2023-07-02T02:36:10;2.43;;;2.20;;
13704;SDS011;6924;52.122;9.952;2023-07-02T02:38:36;2.63;;;1.80;;
13704;SDS011;6924;52.122;9.952;2023-07-02T02:41:03;2.13;;;2.00;;
13704;SDS011;6924;52.122;9.952;2023-07-02T02:43:29;2.20;;;2.10;;
13704;SDS011;6924;52.122;9.952;2023-07-02T02:45:57;1.70;;;1.60;;
13704;SDS011;6924;52.122;9.952;2023-07-02T02:48:23;2.20;;;2.10;;
13704;SDS011;6924;52.122;9.952;2023-07-02T02:50:50;2.30;;;2.20;;
13704;SDS011;6924;52.122;9.952;2023-07-02T02:53:17;2.23;;;2.13;;
13704;SDS011;6924;52.122;9.952;2023-07-02T02:55:43;2.63;;;2.20;;
13704;SDS011;6924;52.122;9.952;2023-07-02T02:58:10;2.47;;;2.30;;
13704;SDS011;6924;52.122;9.952;2023-07-02T03:00:36;2.33;;;2.07;;
13704;SDS011;6924;52.122;9.952;2023-07-02T03:03:08;2.10;;;1.90;;
13704;SDS011;6924;52.122;9.952;2023-07-02T03:05:35;2.40;;;2.20;;
13704;SDS011;6924;52.122;9.952;2023-07-02T03:08:01;3.53;;;2.43;;
13704;SDS011;6924;52.122;9.952;2023-07-02T03:10:28;2.10;;;2.00;;
13704;SDS011;6924;52.122;9.952;2023-07-02T03:12:54;2.53;;;2.33;;
13704;SDS011;6924;52.122;9.952;2023-07-02T03:15:21;2.60;;;2.40;;
13704;SDS011;6924;52.122;9.952;2023-07-02T03:17:47;3.43;;;3.13;;
13704;SDS011;6924;52.122;9.952;2023-07-02T03:20:15;2.97;;;2.77;;
13704;SDS011;6924;52.122;9.952;2023-07-02T03:22:41;3.40;;;3.07;;
13704;SDS011;6924;52.122;9.952;2023-07-02T03:25:08;2.77;;;2.57;;
13704;SDS011;6924;52.122;9.952;2023-07-02T03:27:34;2.83;;;2.63;;
13704;SDS011;6924;52.122;9.952;2023-07-02T03:30:01;3.03;;;2.73;;
13704;SDS011;6924;52.122;9.952;2023-07-02T03:32:28;3.03;;;2.83;;
13704;SDS011;6924;52.122;9.952;2023-07-02T03:34:55;2.50;;;2.40;;
13704;SDS011;6924;52.122;9.952;2023-07-02T03:37:23;2.53;;;2.33;;
13704;SDS011;6924;52.122;9.952;2023-07-02T03:39:49;2.93;;;2.73;;
13704;SDS011;6924;52.122;9.952;2023-07-02T03:42:16;2.90;;;2.70;;
13704;SDS011;6924;52.122;9.952;2023-07-02T03:44:42;2.93;;;2.73;;
13704;SDS011;6924;52.122;9.952;2023-07-02T03:47:08;2.87;;;2.67;;
13704;SDS011;6924;52.122;9.952;2023-07-02T03:49:37;3.20;;;2.90;;
13704;SDS011;6924;52.122;9.952;2023-07-02T03:52:04;3.60;;;3.30;;
13704;SDS011;6924;52.122;9.952;2023-07-02T03:54:32;3.97;;;3.67;;
13704;SDS011;6924;52.122;9.952;2023-07-02T03:56:58;3.10;;;2.90;;
13704;SDS011;6924;52.122;9.952;2023-07-02T03:59:25;2.97;;;2.77;;
13704;SDS011;6924;52.122;9.952;2023-07-02T04:01:51;2.80;;;2.60;;
13704;SDS011;6924;52.122;9.952;2023-07-02T04:04:18;3.87;;;3.10;;
13704;SDS011;6924;52.122;9.952;2023-07-02T04:06:44;9.30;;;3.40;;
13704;SDS011;6924;52.122;9.952;2023-07-02T04:09:11;4.30;;;3.53;;
13704;SDS011;6924;52.122;9.952;2023-07-02T04:11:39;4.10;;;3.63;;
13704;SDS011;6924;52.122;9.952;2023-07-02T04:14:05;3.10;;;2.90;;
13704;SDS011;6924;52.122;9.952;2023-07-02T04:16:32;4.47;;;3.57;;
13704;SDS011;6924;52.122;9.952;2023-07-02T04:18:58;4.40;;;4.10;;
13704;SDS011;6924;52.122;9.952;2023-07-02T04:21:25;4.00;;;3.70;;
13704;SDS011;6924;52.122;9.952;2023-07-02T04:23:51;4.17;;;3.87;;
13704;SDS011;6924;52.122;9.952;2023-07-02T04:26:18;4.77;;;4.47;;
13704;SDS011;6924;52.122;9.952;2023-07-02T04:28:45;3.90;;;3.70;;
13704;SDS011;6924;52.122;9.952;2023-07-02T04:31:12;5.03;;;4.67;;
13704;SDS011;6924;52.122;9.952;2023-07-02T04:33:39;4.43;;;4.13;;
13704;SDS011;6924;52.122;9.952;2023-07-02T04:36:06;5.47;;;5.07;;
13704;SDS011;6924;52.122;9.952;2023-07-02T04:38:33;5.33;;;4.83;;
13704;SDS011;6924;52.122;9.952;2023-07-02T04:40:59;5.40;;;5.00;;
13704;SDS011;6924;52.122;9.952;2023-07-02T04:43:30;5.13;;;4.20;;
13704;SDS011;6924;52.122;9.952;2023-07-02T04:45:58;5.33;;;4.93;;
13704;SDS011;6924;52.122;9.952;2023-07-02T04:48:24;5.73;;;5.33;;
13704;SDS011;6924;52.122;9.952;2023-07-02T04:50:51;5.57;;;5.20;;
13704;SDS011;6924;52.122;9.952;2023-07-02T04:53:17;6.00;;;5.60;;
13704;SDS011;6924;52.122;9.952;2023-07-02T04:55:44;6.17;;;5.77;;
13704;SDS011;6924;52.122;9.952;2023-07-02T04:58:10;5.97;;;5.57;;
13704;SDS011;6924;52.122;9.952;2023-07-02T05:00:37;7.00;;;6.50;;
13704;SDS011;6924;52.122;9.952;2023-07-02T05:03:05;7.20;;;6.70;;
13704;SDS011;6924;52.122;9.952;2023-07-02T05:05:31;7.50;;;6.97;;
13704;SDS011;6924;52.122;9.952;2023-07-02T05:07:58;8.67;;;7.97;;
13704;SDS011;6924;52.122;9.952;2023-07-02T05:10:24;8.77;;;8.07;;
13704;SDS011;6924;52.122;9.952;2023-07-02T05:12:50;8.07;;;7.47;;
13704;SDS011;6924;52.122;9.952;2023-07-02T05:15:17;10.43;;;9.47;;
13704;SDS011;6924;52.122;9.952;2023-07-02T05:17:44;6.93;;;6.37;;
13704;SDS011;6924;52.122;9.952;2023-07-02T05:20:12;5.23;;;4.50;;
13704;SDS011;6924;52.122;9.952;2023-07-02T05:22:38;6.50;;;4.43;;
13704;SDS011;6924;52.122;9.952;2023-07-02T05:25:05;5.80;;;4.87;;
13704;SDS011;6924;52.122;9.952;2023-07-02T05:27:32;5.43;;;3.97;;
13704;SDS011;6924;52.122;9.952;2023-07-02T05:30:01;6.17;;;4.10;;
13704;SDS011;6924;52.122;9.952;2023-07-02T05:32:28;8.17;;;4.63;;
13704;SDS011;6924;52.122;9.952;2023-07-02T05:34:54;4.63;;;3.73;;
13704;SDS011;6924;52.122;9.952;2023-07-02T05:37:22;5.43;;;3.90;;
13704;SDS011;6924;52.122;9.952;2023-07-02T05:39:49;6.43;;;3.93;;
13704;SDS011;6924;52.122;9.952;2023-07-02T05:42:15;4.77;;;3.73;;
13704;SDS011;6924;52.122;9.952;2023-07-02T05:44:42;5.60;;;3.83;;
13704;SDS011;6924;52.122;9.952;2023-07-02T05:47:08;8.13;;;4.10;;
13704;SDS011;6924;52.122;9.952;2023-07-02T05:49:35;8.40;;;4.97;;
13704;SDS011;6924;52.122;9.952;2023-07-02T05:52:01;5.60;;;4.30;;
13704;SDS011;6924;52.122;9.952;2023-07-02T05:54:29;4.50;;;4.10;;
13704;SDS011;6924;52.122;9.952;2023-07-02T05:56:55;5.87;;;4.30;;
13704;SDS011;6924;52.122;9.952;2023-07-02T05:59:22;5.27;;;4.73;;
13704;SDS011;6924;52.122;9.952;2023-07-02T06:01:48;5.73;;;4.00;;
13704;SDS011;6924;52.122;9.952;2023-07-02T06:04:15;6.10;;;4.73;;
13704;SDS011;6924;52.122;9.952;2023-07-02T06:06:41;7.63;;;4.10;;
13704;SDS011;6924;52.122;9.952;2023-07-02T06:09:08;4.53;;;4.10;;
13704;SDS011;6924;52.122;9.952;2023-07-02T06:11:36;6.63;;;4.03;;
13704;SDS011;6924;52.122;9.952;2023-07-02T06:14:03;4.07;;;3.67;;
13704;SDS011;6924;52.122;9.952;2023-07-02T06:16:29;4.70;;;4.13;;
13704;SDS011;6924;52.122;9.952;2023-07-02T06:18:55;6.43;;;4.53;;
13704;SDS011;6924;52.122;9.952;2023-07-02T06:21:22;6.73;;;4.63;;
13704;SDS011;6924;52.122;9.952;2023-07-02T06:23:54;5.93;;;4.13;;
13704;SDS011;6924;52.122;9.952;2023-07-02T06:26:20;8.17;;;3.87;;
13704;SDS011;6924;52.122;9.952;2023-07-02T06:28:48;4.53;;;3.90;;
13704;SDS011;6924;52.122;9.952;2023-07-02T06:31:15;3.57;;;3.27;;
13704;SDS011;6924;52.122;9.952;2023-07-02T06:33:41;3.67;;;3.37;;
13704;SDS011;6924;52.122;9.952;2023-07-02T06:36:08;8.50;;;3.73;;
13704;SDS011;6924;52.122;9.952;2023-07-02T06:38:35;9.03;;;4.20;;
13704;SDS011;6924;52.122;9.952;2023-07-02T06:41:03;5.20;;;3.73;;
13704;SDS011;6924;52.122;9.952;2023-07-02T06:43:29;5.77;;;3.83;;
13704;SDS011;6924;52.122;9.952;2023-07-02T06:45:57;5.90;;;4.00;;
13704;SDS011;6924;52.122;9.952;2023-07-02T06:48:24;4.50;;;3.67;;
13704;SDS011;6924;52.122;9.952;2023-07-02T06:50:50;4.60;;;3.73;;
13704;SDS011;6924;52.122;9.952;2023-07-02T06:53:16;4.87;;;4.20;;
13704;SDS011;6924;52.122;9.952;2023-07-02T06:55:43;9.73;;;3.50;;
13704;SDS011;6924;52.122;9.952;2023-07-02T06:58:09;6.03;;;4.00;;
13704;SDS011;6924;52.122;9.952;2023-07-02T07:00:36;5.10;;;4.17;;
13704;SDS011;6924;52.122;9.952;2023-07-02T07:03:04;5.10;;;3.77;;
13704;SDS011;6924;52.122;9.952;2023-07-02T07:05:30;5.90;;;3.70;;
13704;SDS011;6924;52.122;9.952;2023-07-02T07:07:57;6.47;;;4.47;;
13704;SDS011;6924;52.122;9.952;2023-07-02T07:10:24;7.27;;;4.33;;
13704;SDS011;6924;52.122;9.952;2023-07-02T07:12:50;4.97;;;3.63;;
13704;SDS011;6924;52.122;9.952;2023-07-02T07:15:16;6.50;;;4.17;;
13704;SDS011;6924;52.122;9.952;2023-07-02T07:17:45;4.90;;;3.63;;
13704;SDS011;6924;52.122;9.952;2023-07-02T07:20:13;5.60;;;3.73;;
13704;SDS011;6924;52.122;9.952;2023-07-02T07:22:39;5.30;;;3.03;;
13704;SDS011;6924;52.122;9.952;2023-07-02T07:25:07;5.77;;;3.77;;
13704;SDS011;6924;52.122;9.952;2023-07-02T07:27:34;8.93;;;3.73;;
13704;SDS011;6924;52.122;9.952;2023-07-02T07:30:00;5.30;;;4.27;;
13704;SDS011;6924;52.122;9.952;2023-07-02T07:32:27;6.53;;;4.20;;
13704;SDS011;6924;52.122;9.952;2023-07-02T07:34:53;4.47;;;3.30;;
13704;SDS011;6924;52.122;9.952;2023-07-02T07:37:21;4.27;;;2.70;;
13704;SDS011;6924;52.122;9.952;2023-07-02T07:39:47;6.90;;;3.07;;
13704;SDS011;6924;52.122;9.952;2023-07-02T07:42:14;5.43;;;3.30;;
13704;SDS011;6924;52.122;9.952;2023-07-02T07:44:41;5.63;;;3.00;;
13704;SDS011;6924;52.122;9.952;2023-07-02T07:47:08;6.37;;;3.30;;
13704;SDS011;6924;52.122;9.952;2023-07-02T07:49:34;6.50;;;3.50;;
13704;SDS011;6924;52.122;9.952;2023-07-02T07:52:01;9.07;;;3.27;;
13704;SDS011;6924;52.122;9.952;2023-07-02T07:54:29;7.20;;;3.20;;
13704;SDS011;6924;52.122;9.952;2023-07-02T07:56:56;7.30;;;3.20;;
13704;SDS011;6924;52.122;9.952;2023-07-02T07:59:22;8.70;;;4.40;;
13704;SDS011;6924;52.122;9.952;2023-07-02T08:01:49;6.93;;;3.90;;
13704;SDS011;6924;52.122;9.952;2023-07-02T08:04:15;5.23;;;4.10;;
13704;SDS011;6924;52.122;9.952;2023-07-02T08:06:44;8.67;;;3.00;;
13704;SDS011;6924;52.122;9.952;2023-07-02T08:09:11;4.57;;;3.23;;
13704;SDS011;6924;52.122;9.952;2023-07-02T08:11:40;4.57;;;3.30;;
13704;SDS011;6924;52.122;9.952;2023-07-02T08:14:07;5.30;;;3.20;;
13704;SDS011;6924;52.122;9.952;2023-07-02T08:16:34;6.70;;;3.40;;
13704;SDS011;6924;52.122;9.952;2023-07-02T08:19:00;3.63;;;3.23;;
13704;SDS011;6924;52.122;9.952;2023-07-02T08:21:27;5.17;;;4.37;;
13704;SDS011;6924;52.122;9.952;2023-07-02T08:23:53;5.20;;;3.77;;
13704;SDS011;6924;52.122;9.952;2023-07-02T08:26:22;8.70;;;3.50;;
13704;SDS011;6924;52.122;9.952;2023-07-02T08:28:50;7.27;;;3.50;;
13704;SDS011;6924;52.122;9.952;2023-07-02T08:31:16;6.10;;;3.53;;
13704;SDS011;6924;52.122;9.952;2023-07-02T08:33:43;7.20;;;3.67;;
13704;SDS011;6924;52.122;9.952;2023-07-02T08:36:09;7.43;;;4.03;;
13704;SDS011;6924;52.122;9.952;2023-07-02T08:38:36;8.60;;;4.90;;
13704;SDS011;6924;52.122;9.952;2023-07-02T08:41:04;4.77;;;2.90;;
13704;SDS011;6924;52.122;9.952;2023-07-02T08:43:31;7.93;;;3.80;;
13704;SDS011;6924;52.122;9.952;2023-07-02T08:45:59;7.83;;;3.20;;
13704;SDS011;6924;52.122;9.952;2023-07-02T08:48:25;5.73;;;3.90;;
13704;SDS011;6924;52.122;9.952;2023-07-02T08:50:54;5.37;;;3.50;;
13704;SDS011;6924;52.122;9.952;2023-07-02T08:53:21;4.73;;;3.97;;
13704;SDS011;6924;52.122;9.952;2023-07-02T08:55:50;4.37;;;3.57;;
13704;SDS011;6924;52.122;9.952;2023-07-02T08:58:17;9.43;;;3.70;;
13704;SDS011;6924;52.122;9.952;2023-07-02T09:03:33;3.97;;;3.27;;
13704;SDS011;6924;52.122;9.952;2023-07-02T09:05:59;5.43;;;3.50;;
13704;SDS011;6924;52.122;9.952;2023-07-02T09:08:26;7.17;;;3.97;;
13704;SDS011;6924;52.122;9.952;2023-07-02T09:10:53;5.83;;;3.60;;
13704;SDS011;6924;52.122;9.952;2023-07-02T09:13:20;6.73;;;3.87;;
13704;SDS011;6924;52.122;9.952;2023-07-02T09:15:46;5.50;;;3.60;;
13704;SDS011;6924;52.122;9.952;2023-07-02T09:18:18;8.20;;;3.53;;
13704;SDS011;6924;52.122;9.952;2023-07-02T09:20:45;6.00;;;4.13;;
13704;SDS011;6924;52.122;9.952;2023-07-02T09:23:13;6.03;;;3.23;;
13704;SDS011;6924;52.122;9.952;2023-07-02T09:25:40;5.03;;;4.07;;
13704;SDS011;6924;52.122;9.952;2023-07-02T09:28:18;4.50;;;3.70;;
13704;SDS011;6924;52.122;9.952;2023-07-02T09:30:49;5.83;;;3.60;;
13704;SDS011;6924;52.122;9.952;2023-07-02T09:33:17;5.03;;;3.73;;
13704;SDS011;6924;52.122;9.952;2023-07-02T09:35:44;7.10;;;3.27;;
13704;SDS011;6924;52.122;9.952;2023-07-02T09:38:11;5.60;;;3.07;;
13704;SDS011;6924;52.122;9.952;2023-07-02T09:40:41;4.63;;;3.63;;
13704;SDS011;6924;52.122;9.952;2023-07-02T09:43:11;5.93;;;3.80;;
13704;SDS011;6924;52.122;9.952;2023-07-02T09:45:40;6.87;;;4.37;;
13704;SDS011;6924;52.122;9.952;2023-07-02T09:48:10;5.50;;;3.67;;
13704;SDS011;6924;52.122;9.952;2023-07-02T09:50:40;5.10;;;3.87;;
13704;SDS011;6924;52.122;9.952;2023-07-02T09:53:07;5.60;;;3.23;;
13704;SDS011;6924;52.122;9.952;2023-07-02T09:55:34;6.23;;;4.00;;
13704;SDS011;6924;52.122;9.952;2023-07-02T09:58:00;8.53;;;3.83;;
13704;SDS011;6924;52.122;9.952;2023-07-02T10:00:27;6.20;;;3.83;;
13704;SDS011;6924;52.122;9.952;2023-07-02T10:02:53;6.10;;;3.37;;
13704;SDS011;6924;52.122;9.952;2023-07-02T10:05:26;6.77;;;3.57;;
13704;SDS011;6924;52.122;9.952;2023-07-02T10:07:55;5.30;;;3.00;;
13704;SDS011;6924;52.122;9.952;2023-07-02T10:10:25;5.37;;;3.70;;
13704;SDS011;6924;52.122;9.952;2023-07-02T10:12:53;5.27;;;3.50;;
13704;SDS011;6924;52.122;9.952;2023-07-02T10:15:24;4.70;;;3.50;;
13704;SDS011;6924;52.122;9.952;2023-07-02T10:17:54;5.60;;;3.47;;
13704;SDS011;6924;52.122;9.952;2023-07-02T10:20:30;6.67;;;3.40;;
13704;SDS011;6924;52.122;9.952;2023-07-02T10:22:59;5.50;;;3.73;;
13704;SDS011;6924;52.122;9.952;2023-07-02T10:25:27;4.43;;;3.33;;
13704;SDS011;6924;52.122;9.952;2023-07-02T10:27:54;5.50;;;3.80;;
13704;SDS011;6924;52.122;9.952;2023-07-02T10:30:30;4.67;;;2.83;;
13704;SDS011;6924;52.122;9.952;2023-07-02T10:33:06;5.37;;;3.47;;
13704;SDS011;6924;52.122;9.952;2023-07-02T10:35:34;5.13;;;3.57;;
13704;SDS011;6924;52.122;9.952;2023-07-02T10:38:02;3.67;;;3.10;;
13704;SDS011;6924;52.122;9.952;2023-07-02T10:40:31;4.80;;;3.23;;
13704;SDS011;6924;52.122;9.952;2023-07-02T10:42:58;3.80;;;3.07;;
13704;SDS011;6924;52.122;9.952;2023-07-02T10:45:30;4.50;;;2.70;;
13704;SDS011;6924;52.122;9.952;2023-07-02T10:47:57;3.63;;;3.13;;
13704;SDS011;6924;52.122;9.952;2023-07-02T10:50:24;6.37;;;3.03;;
13704;SDS011;6924;52.122;9.952;2023-07-02T10:52:50;4.53;;;2.80;;
13704;SDS011;6924;52.122;9.952;2023-07-02T10:55:18;5.90;;;2.73;;
13704;SDS011;6924;52.122;9.952;2023-07-02T10:57:45;5.33;;;2.93;;
13704;SDS011;6924;52.122;9.952;2023-07-02T11:00:13;16.57;;;3.57;;
13704;SDS011;6924;52.122;9.952;2023-07-02T11:02:40;2.77;;;2.53;;
13704;SDS011;6924;52.122;9.952;2023-07-02T11:05:07;6.50;;;3.93;;
13704;SDS011;6924;52.122;9.952;2023-07-02T11:07:36;6.40;;;3.03;;
13704;SDS011;6924;52.122;9.952;2023-07-02T11:10:04;4.10;;;2.83;;
13704;SDS011;6924;52.122;9.952;2023-07-02T11:12:32;4.87;;;3.17;;
13704;SDS011;6924;52.122;9.952;2023-07-02T11:15:08;5.23;;;3.67;;
13704;SDS011;6924;52.122;9.952;2023-07-02T11:17:34;5.67;;;3.47;;
13704;SDS011;6924;52.122;9.952;2023-07-02T11:20:02;5.30;;;2.70;;
13704;SDS011;6924;52.122;9.952;2023-07-02T11:22:34;5.07;;;3.17;;
13704;SDS011;6924;52.122;9.952;2023-07-02T11:25:14;4.37;;;3.07;;
13704;SDS011;6924;52.122;9.952;2023-07-02T11:27:43;3.43;;;2.63;;
13704;SDS011;6924;52.122;9.952;2023-07-02T11:30:10;4.97;;;3.47;;
13704;SDS011;6924;52.122;9.952;2023-07-02T11:32:47;5.33;;;2.93;;
13704;SDS011;6924;52.122;9.952;2023-07-02T11:35:15;3.93;;;3.30;;
13704;SDS011;6924;52.122;9.952;2023-07-02T11:37:42;3.73;;;3.07;;
13704;SDS011;6924;52.122;9.952;2023-07-02T11:40:09;4.30;;;2.93;;
13704;SDS011;6924;52.122;9.952;2023-07-02T11:42:36;3.67;;;3.10;;
13704;SDS011;6924;52.122;9.952;2023-07-02T11:45:04;4.40;;;2.50;;
13704;SDS011;6924;52.122;9.952;2023-07-02T11:47:32;4.40;;;3.10;;
13704;SDS011;6924;52.122;9.952;2023-07-02T11:49:58;5.77;;;2.70;;
13704;SDS011;6924;52.122;9.952;2023-07-02T11:52:24;4.63;;;2.97;;
13704;SDS011;6924;52.122;9.952;2023-07-02T11:54:51;4.43;;;2.43;;
13704;SDS011;6924;52.122;9.952;2023-07-02T11:57:17;4.30;;;2.30;;
13704;SDS011;6924;52.122;9.952;2023-07-02T11:59:44;3.00;;;2.27;;
13704;SDS011;6924;52.122;9.952;2023-07-02T12:02:11;4.97;;;2.40;;
13704;SDS011;6924;52.122;9.952;2023-07-02T12:04:38;3.63;;;2.17;;
13704;SDS011;6924;52.122;9.952;2023-07-02T12:07:05;2.63;;;2.43;;
13704;SDS011;6924;52.122;9.952;2023-07-02T12:09:31;4.23;;;2.47;;
13704;SDS011;6924;52.122;9.952;2023-07-02T12:11:58;3.17;;;2.37;;
13704;SDS011;6924;52.122;9.952;2023-07-02T12:14:24;4.07;;;2.63;;
13704;SDS011;6924;52.122;9.952;2023-07-02T12:16:50;3.40;;;2.43;;
13704;SDS011;6924;52.122;9.952;2023-07-02T12:19:18;3.40;;;2.30;;
13704;SDS011;6924;52.122;9.952;2023-07-02T12:21:45;5.73;;;2.90;;
13704;SDS011;6924;52.122;9.952;2023-07-02T12:24:11;3.00;;;2.70;;
13704;SDS011;6924;52.122;9.952;2023-07-02T12:26:38;2.90;;;2.60;;
13704;SDS011;6924;52.122;9.952;2023-07-02T12:29:05;4.80;;;2.40;;
13704;SDS011;6924;52.122;9.952;2023-07-02T12:31:32;3.63;;;2.87;;
13704;SDS011;6924;52.122;9.952;2023-07-02T12:33:58;5.90;;;2.57;;
13704;SDS011;6924;52.122;9.952;2023-07-02T12:36:26;4.43;;;2.80;;
13704;SDS011;6924;52.122;9.952;2023-07-02T12:38:52;3.53;;;2.50;;
13704;SDS011;6924;52.122;9.952;2023-07-02T12:41:22;2.80;;;2.30;;
13704;SDS011;6924;52.122;9.952;2023-07-02T12:43:48;3.93;;;2.30;;
13704;SDS011;6924;52.122;9.952;2023-07-02T12:46:15;2.57;;;2.10;;
13704;SDS011;6924;52.122;9.952;2023-07-02T12:48:41;3.33;;;2.33;;
13704;SDS011;6924;52.122;9.952;2023-07-02T12:51:07;4.87;;;2.87;;
13704;SDS011;6924;52.122;9.952;2023-07-02T12:53:35;2.53;;;2.33;;
13704;SDS011;6924;52.122;9.952;2023-07-02T12:56:02;3.23;;;2.37;;
13704;SDS011;6924;52.122;9.952;2023-07-02T12:58:28;5.10;;;2.33;;
13704;SDS011;6924;52.122;9.952;2023-07-02T13:00:55;3.97;;;2.53;;
13704;SDS011;6924;52.122;9.952;2023-07-02T13:03:21;4.97;;;2.50;;
13704;SDS011;6924;52.122;9.952;2023-07-02T13:05:49;3.33;;;2.60;;
13704;SDS011;6924;52.122;9.952;2023-07-02T13:08:16;3.90;;;3.00;;
13704;SDS011;6924;52.122;9.952;2023-07-02T13:10:44;5.07;;;2.77;;
13704;SDS011;6924;52.122;9.952;2023-07-02T13:13:12;4.63;;;2.60;;
13704;SDS011;6924;52.122;9.952;2023-07-02T13:15:38;5.33;;;2.57;;
13704;SDS011;6924;52.122;9.952;2023-07-02T13:18:05;5.10;;;2.23;;
13704;SDS011;6924;52.122;9.952;2023-07-02T13:20:32;4.50;;;2.37;;
13704;SDS011;6924;52.122;9.952;2023-07-02T13:22:58;2.90;;;2.60;;
13704;SDS011;6924;52.122;9.952;2023-07-02T13:25:25;3.03;;;2.47;;
13704;SDS011;6924;52.122;9.952;2023-07-02T13:27:53;3.17;;;2.33;;
13704;SDS011;6924;52.122;9.952;2023-07-02T13:30:19;5.23;;;2.60;;
13704;SDS011;6924;52.122;9.952;2023-07-02T13:32:46;4.17;;;3.20;;
13704;SDS011;6924;52.122;9.952;2023-07-02T13:35:13;3.83;;;3.00;;
13704;SDS011;6924;52.122;9.952;2023-07-02T13:37:40;4.97;;;3.30;;
13704;SDS011;6924;52.122;9.952;2023-07-02T13:40:07;4.47;;;3.67;;
13704;SDS011;6924;52.122;9.952;2023-07-02T13:42:37;3.50;;;2.50;;
13704;SDS011;6924;52.122;9.952;2023-07-02T13:45:06;3.47;;;3.00;;
13704;SDS011;6924;52.122;9.952;2023-07-02T13:47:34;4.73;;;3.53;;
13704;SDS011;6924;52.122;9.952;2023-07-02T13:50:01;5.27;;;2.53;;
13704;SDS011;6924;52.122;9.952;2023-07-02T13:52:28;4.13;;;2.87;;
13704;SDS011;6924;52.122;9.952;2023-07-02T13:54:55;3.23;;;2.93;;
13704;SDS011;6924;52.122;9.952;2023-07-02T13:57:24;4.33;;;3.47;;
13704;SDS011;6924;52.122;9.952;2023-07-02T13:59:51;4.53;;;2.80;;
13704;SDS011;6924;52.122;9.952;2023-07-02T14:02:18;3.90;;;2.80;;
13704;SDS011;6924;52.122;9.952;2023-07-02T14:04:46;2.93;;;2.53;;
13704;SDS011;6924;52.122;9.952;2023-07-02T14:07:13;4.80;;;2.50;;
13704;SDS011;6924;52.122;9.952;2023-07-02T14:09:40;5.10;;;3.03;;
13704;SDS011;6924;52.122;9.952;2023-07-02T14:12:06;4.47;;;2.60;;
13704;SDS011;6924;52.122;9.952;2023-07-02T14:14:33;3.70;;;2.83;;
13704;SDS011;6924;52.122;9.952;2023-07-02T14:17:01;4.17;;;3.30;;
13704;SDS011;6924;52.122;9.952;2023-07-02T14:19:28;4.67;;;3.30;;
13704;SDS011;6924;52.122;9.952;2023-07-02T14:21:57;5.67;;;2.97;;
13704;SDS011;6924;52.122;9.952;2023-07-02T14:24:23;4.57;;;2.83;;
13704;SDS011;6924;52.122;9.952;2023-07-02T14:26:51;4.47;;;3.00;;
13704;SDS011;6924;52.122;9.952;2023-07-02T14:29:17;4.47;;;2.93;;
13704;SDS011;6924;52.122;9.952;2023-07-02T14:31:44;3.33;;;2.50;;
13704;SDS011;6924;52.122;9.952;2023-07-02T14:34:11;3.00;;;2.63;;
13704;SDS011;6924;52.122;9.952;2023-07-02T14:36:38;4.20;;;2.87;;
13704;SDS011;6924;52.122;9.952;2023-07-02T14:39:04;4.77;;;2.47;;
13704;SDS011;6924;52.122;9.952;2023-07-02T14:41:31;5.73;;;2.57;;
13704;SDS011;6924;52.122;9.952;2023-07-02T14:44:00;3.27;;;2.53;;
13704;SDS011;6924;52.122;9.952;2023-07-02T14:46:27;4.23;;;2.40;;
13704;SDS011;6924;52.122;9.952;2023-07-02T14:48:54;3.47;;;2.23;;
13704;SDS011;6924;52.122;9.952;2023-07-02T14:51:21;3.50;;;2.40;;
13704;SDS011;6924;52.122;9.952;2023-07-02T14:53:49;4.87;;;3.00;;
13704;SDS011;6924;52.122;9.952;2023-07-02T14:56:16;2.87;;;2.57;;
13704;SDS011;6924;52.122;9.952;2023-07-02T14:58:43;3.93;;;2.80;;
13704;SDS011;6924;52.122;9.952;2023-07-02T15:01:09;6.07;;;2.57;;
13704;SDS011;6924;52.122;9.952;2023-07-02T15:03:36;3.33;;;2.23;;